Time;durP1;ratioP1;P1;durP2;ratioP2;P2;SDS_P1;SDS_P2;PMS_P1;PMS_P2;Temp;Humidity;BMP_temperature;BMP_pressure;BME280_temperature;BME280_humidity;BME280_pressure;Samples;Min_cycle;Max_cycle;Signal;HPM_P1;HPM_P2
2022/10/16 00:01:58;;;;;;;2.20;0.52;;;13.20;99.90;;;;;;6249485;22;20019;-89
2022/10/16 00:04:24;;;;;;;4.03;0.70;;;13.30;99.90;;;;;;6225776;22;20389;-91
2022/10/16 00:07:03;;;;;;;3.70;0.80;;;13.30;99.90;;;;;;6181245;22;20069;-88
2022/10/16 00:09:29;;;;;;;1.48;0.45;;;13.30;99.90;;;;;;6243386;22;20073;-90
2022/10/16 00:12:07;;;;;;;4.18;0.80;;;13.30;99.90;;;;;;6231471;22;20019;-88
2022/10/16 00:21:37;;;;;;;2.08;0.57;;;13.20;99.90;;;;;;6283371;22;20023;-90
2022/10/16 00:24:08;;;;;;;3.42;0.55;;;13.20;99.90;;;;;;6254856;22;20388;-89
2022/10/16 00:27:23;;;;;;;2.33;0.60;;;13.30;99.90;;;;;;6256085;22;20011;-90
2022/10/16 00:37:34;;;;;;;1.30;0.40;;;13.20;99.90;;;;;;6280128;22;20027;-92
2022/10/16 00:40:28;;;;;;;3.08;0.50;;;13.20;99.90;;;;;;6201170;22;20038;-93
2022/10/16 01:02:15;;;;;;;2.58;0.52;;;13.20;99.90;;;;;;6308206;22;20026;-89
2022/10/16 01:04:45;;;;;;;1.88;0.60;;;13.20;99.90;;;;;;6280232;22;20026;-89
2022/10/16 01:13:21;;;;;;;1.38;0.43;;;13.20;99.90;;;;;;6277979;22;20020;-93
2022/10/16 01:15:50;;;;;;;1.95;0.50;;;13.20;99.90;;;;;;6211981;22;20020;-90
2022/10/16 01:18:36;;;;;;;1.08;0.45;;;13.20;99.90;;;;;;6225791;22;20018;-90
2022/10/16 01:21:45;;;;;;;1.63;0.43;;;13.20;99.90;;;;;;6225972;22;20023;-88
2022/10/16 01:24:50;;;;;;;1.48;0.47;;;13.20;99.90;;;;;;6226079;22;20020;-91
2022/10/16 01:27:30;;;;;;;1.17;0.40;;;13.20;99.90;;;;;;6226162;22;20345;-89
2022/10/16 01:30:57;;;;;;;;;;;;;;;;;;;;;
2022/10/16 01:34:14;;;;;;;0.95;0.40;;;13.10;99.90;;;;;;6248131;22;20015;-87
2022/10/16 01:36:46;;;;;;;1.27;0.40;;;13.20;99.90;;;;;;6181860;22;20433;-91
2022/10/16 01:39:33;;;;;;;2.38;0.40;;;13.20;99.90;;;;;;6225138;22;20023;-87
2022/10/16 01:42:33;;;;;;;0.95;0.30;;;13.10;99.90;;;;;;6226312;22;20046;-91
2022/10/16 01:52:53;;;;;;;1.05;0.40;;;13.10;99.90;;;;;;6277767;22;20046;-92
2022/10/16 01:55:51;;;;;;;1.27;0.30;;;13.20;99.90;;;;;;6250612;22;20483;-89
2022/10/16 01:59:05;;;;;;;1.77;0.38;;;13.10;99.90;;;;;;6225489;22;20069;-89
2022/10/16 02:01:34;;;;;;;1.27;0.60;;;13.20;99.90;;;;;;6193327;22;20120;-91
2022/10/16 02:04:07;;;;;;;3.17;0.57;;;13.20;99.90;;;;;;6250793;22;20011;-92
2022/10/16 02:06:33;;;;;;;1.98;0.60;;;13.20;99.90;;;;;;6227132;22;20035;-89
2022/10/16 02:08:59;;;;;;;3.50;1.15;;;13.20;99.90;;;;;;6212115;22;20453;-87
2022/10/16 02:11:25;;;;;;;1.38;0.40;;;13.20;99.90;;;;;;6242380;22;20020;-92
2022/10/16 02:14:05;;;;;;;1.80;0.50;;;13.20;99.90;;;;;;6231329;22;20037;-89
2022/10/16 02:17:02;;;;;;;1.33;0.45;;;13.20;99.90;;;;;;6225228;22;20015;-90
2022/10/16 02:19:28;;;;;;;1.00;0.40;;;13.20;99.90;;;;;;6202302;22;20020;-91
2022/10/16 02:21:58;;;;;;;1.20;0.50;;;13.30;99.90;;;;;;6225610;22;20046;-90
2022/10/16 02:24:32;;;;;;;1.50;0.50;;;13.30;99.90;;;;;;6225717;22;20015;-89
2022/10/16 02:27:43;;;;;;;1.90;0.57;;;13.30;99.90;;;;;;6225714;22;20008;-90
2022/10/16 02:30:31;;;;;;;0.60;0.30;;;13.30;99.90;;;;;;6225595;22;20016;-90
2022/10/16 03:02:35;;;;;;;1.95;0.55;;;13.40;99.90;;;;;;6258622;22;20106;-90
2022/10/16 03:05:22;;;;;;;1.20;0.50;;;13.40;99.90;;;;;;6175786;22;20051;-91
2022/10/16 03:28:31;;;;;;;1.83;0.50;;;13.30;99.90;;;;;;6275897;22;20027;-92
2022/10/16 03:30:57;;;;;;;2.22;0.52;;;13.40;99.90;;;;;;6200415;22;20020;-91
2022/10/16 03:33:25;;;;;;;2.00;0.40;;;13.30;99.90;;;;;;6224971;22;20011;-90
2022/10/16 03:35:53;;;;;;;1.40;0.50;;;13.30;99.90;;;;;;6254143;22;20246;-90
2022/10/16 03:38:19;;;;;;;0.93;0.40;;;13.30;99.90;;;;;;6255334;22;20030;-92
2022/10/16 03:40:45;;;;;;;2.47;0.63;;;13.30;99.90;;;;;;6255231;22;20027;-90
2022/10/16 03:43:11;;;;;;;2.07;0.50;;;13.30;99.90;;;;;;6280614;22;20011;-95
2022/10/16 03:45:36;;;;;;;1.58;0.50;;;13.40;99.90;;;;;;6255356;22;20019;-89
2022/10/16 03:48:03;;;;;;;2.20;0.60;;;13.30;99.90;;;;;;6254887;22;20051;-89
2022/10/16 03:50:29;;;;;;;1.10;0.47;;;13.30;99.90;;;;;;6255154;22;20265;-93
2022/10/16 03:52:55;;;;;;;1.10;0.60;;;13.30;99.90;;;;;;6254703;22;20019;-89
2022/10/16 03:55:21;;;;;;;2.25;0.50;;;13.30;99.90;;;;;;6255176;22;20078;-88
2022/10/16 03:57:46;;;;;;;1.45;0.30;;;13.30;99.90;;;;;;6254940;22;20522;-93
2022/10/16 04:00:12;;;;;;;1.70;0.50;;;13.30;99.90;;;;;;6255124;22;20019;-90
2022/10/16 04:02:39;;;;;;;2.15;0.50;;;13.30;99.90;;;;;;6258302;22;20250;-90
2022/10/16 04:05:15;;;;;;;2.25;0.47;;;13.30;99.90;;;;;;6258620;22;20014;-88
2022/10/16 04:07:41;;;;;;;2.33;0.65;;;13.30;99.90;;;;;;6233823;22;20015;-90
2022/10/16 04:10:07;;;;;;;2.70;0.73;;;13.30;99.90;;;;;;6259450;22;20011;-90
2022/10/16 04:12:33;;;;;;;0.93;0.40;;;13.30;99.90;;;;;;6276453;22;20019;-87
2022/10/16 04:14:58;;;;;;;0.90;0.37;;;13.30;99.90;;;;;;6272513;22;20031;-90
2022/10/16 04:17:24;;;;;;;1.23;0.40;;;13.30;99.90;;;;;;6259352;22;20452;-91
2022/10/16 04:19:59;;;;;;;1.17;0.50;;;13.20;99.90;;;;;;6257911;22;20072;-94
2022/10/16 04:22:25;;;;;;;1.33;0.40;;;13.20;99.90;;;;;;6233376;22;20015;-90
2022/10/16 04:24:50;;;;;;;1.50;0.50;;;13.20;99.90;;;;;;6232996;22;20019;-90
2022/10/16 04:27:16;;;;;;;0.87;0.40;;;13.20;99.90;;;;;;6258254;22;20011;-90
2022/10/16 04:29:42;;;;;;;2.43;0.80;;;13.20;99.90;;;;;;6257774;22;20029;-92
2022/10/16 04:32:13;;;;;;;1.63;0.70;;;13.10;99.90;;;;;;6232966;22;20011;-89
2022/10/16 04:34:46;;;;;;;1.88;0.50;;;13.10;99.90;;;;;;6283190;22;20276;-91
2022/10/16 04:37:11;;;;;;;1.50;0.60;;;13.10;99.90;;;;;;6258106;22;20157;-91
2022/10/16 04:39:37;;;;;;;1.47;0.57;;;13.10;99.90;;;;;;6258201;22;20019;-89
2022/10/16 04:42:03;;;;;;;3.07;0.50;;;13.10;99.90;;;;;;6258081;22;20050;-89
2022/10/16 04:44:28;;;;;;;2.07;0.53;;;13.10;99.90;;;;;;6258112;22;20008;-90
2022/10/16 04:46:54;;;;;;;2.30;0.60;;;13.10;99.90;;;;;;6258368;22;20574;-90
2022/10/16 04:49:20;;;;;;;1.67;0.60;;;13.10;99.90;;;;;;6262676;22;20093;-91
2022/10/16 04:51:46;;;;;;;1.30;0.40;;;13.10;99.90;;;;;;6258392;22;20019;-90
2022/10/16 04:54:11;;;;;;;2.50;0.80;;;13.10;99.90;;;;;;6258264;22;20023;-91
2022/10/16 04:57:05;;;;;;;1.27;0.50;;;13.10;99.90;;;;;;6283493;22;20015;-93
2022/10/16 05:02:06;;;;;;;0.98;0.60;;;13.10;99.90;;;;;;6272281;22;20027;-91
2022/10/16 05:04:45;;;;;;;2.15;0.57;;;13.10;99.90;;;;;;6198108;23;20453;-89
2022/10/16 05:07:32;;;;;;;2.35;0.75;;;13.20;99.90;;;;;;6199078;23;20012;-90
2022/10/16 05:10:10;;;;;;;1.27;0.50;;;13.20;99.90;;;;;;6198529;23;20052;-90
2022/10/16 05:12:36;;;;;;;1.70;0.50;;;13.20;99.90;;;;;;6197222;23;20479;-91
2022/10/16 05:15:02;;;;;;;1.73;0.50;;;13.20;99.90;;;;;;6196405;23;20020;-89
2022/10/16 05:17:28;;;;;;;1.60;0.47;;;13.20;99.90;;;;;;6171539;23;20020;-92
2022/10/16 05:20:32;;;;;;;2.07;0.47;;;13.20;99.90;;;;;;6171135;23;20140;-88
2022/10/16 05:23:24;;;;;;;1.75;0.60;;;13.20;99.90;;;;;;6195442;23;20047;-90
2022/10/16 05:26:19;;;;;;;1.38;0.40;;;13.20;99.90;;;;;;6193212;23;20016;-94
2022/10/16 05:28:47;;;;;;;1.60;0.50;;;13.20;99.90;;;;;;6195385;23;20026;-93
2022/10/16 05:31:13;;;;;;;1.73;0.60;;;13.20;99.90;;;;;;6196249;23;20023;-88
2022/10/16 05:34:16;;;;;;;1.37;0.60;;;13.20;99.90;;;;;;6220831;23;20020;-89
2022/10/16 05:37:28;;;;;;;2.45;0.68;;;13.20;99.90;;;;;;6196151;23;20287;-91
2022/10/16 05:40:05;;;;;;;2.35;0.70;;;13.20;99.90;;;;;;6195426;23;20027;-90
2022/10/16 05:42:33;;;;;;;1.45;0.40;;;13.20;99.90;;;;;;6195755;23;20086;-90
2022/10/16 05:44:59;;;;;;;1.90;0.60;;;13.20;99.90;;;;;;6170898;23;20020;-93
2022/10/16 05:47:25;;;;;;;1.75;0.70;;;13.10;99.90;;;;;;6220163;23;20014;-90
2022/10/16 05:50:10;;;;;;;2.25;0.70;;;13.20;99.90;;;;;;6171255;23;20461;-90
2022/10/16 05:52:36;;;;;;;3.70;0.60;;;13.20;99.90;;;;;;6195486;23;20055;-91
2022/10/16 05:55:02;;;;;;;4.05;0.70;;;13.20;99.90;;;;;;6195869;23;20027;-92
2022/10/16 05:57:28;;;;;;;2.60;0.60;;;13.20;99.90;;;;;;6171136;23;20052;-91
2022/10/16 05:59:54;;;;;;;1.13;0.50;;;13.10;99.90;;;;;;6195550;23;20020;-92
2022/10/16 06:02:20;;;;;;;3.05;0.75;;;13.20;99.90;;;;;;6195429;23;20023;-90
2022/10/16 06:04:53;;;;;;;1.23;0.50;;;13.20;99.90;;;;;;6195848;23;20103;-91
2022/10/16 06:07:19;;;;;;;4.43;0.82;;;13.20;99.90;;;;;;6195858;23;20012;-93
2022/10/16 06:09:49;;;;;;;1.60;0.80;;;13.10;99.90;;;;;;6196654;23;20068;-92
2022/10/16 06:14:50;;;;;;;2.22;0.80;;;13.20;99.90;;;;;;6267466;22;20035;-89
2022/10/16 06:17:42;;;;;;;1.95;0.65;;;13.20;99.90;;;;;;6240154;22;20022;-88
2022/10/16 06:20:29;;;;;;;1.50;0.80;;;13.10;99.90;;;;;;6236388;22;20012;-89
2022/10/16 06:22:55;;;;;;;2.90;0.88;;;13.10;99.90;;;;;;6225526;22;20055;-91
2022/10/16 06:25:20;;;;;;;2.43;0.70;;;13.20;99.90;;;;;;6225599;22;20020;-90
2022/10/16 06:27:49;;;;;;;4.03;0.97;;;13.10;99.90;;;;;;6225221;22;20728;-93
2022/10/16 06:30:45;;;;;;;;;;;;;;;;;;;;;
2022/10/16 06:59:16;;;;;;;2.47;0.70;;;13.30;99.90;;;;;;6253549;22;20032;-92
2022/10/16 07:01:42;;;;;;;1.15;0.52;;;13.30;99.90;;;;;;6193658;23;20079;-91
2022/10/16 07:04:08;;;;;;;2.03;0.70;;;13.30;99.90;;;;;;6194797;23;20024;-91
2022/10/16 07:06:34;;;;;;;2.47;0.70;;;13.30;99.90;;;;;;6194831;23;20068;-91
2022/10/16 07:09:03;;;;;;;6.88;0.90;;;13.40;99.90;;;;;;6219922;23;20103;-92
2022/10/16 07:11:29;;;;;;;2.47;0.65;;;13.40;99.90;;;;;;6194999;23;20050;-91
2022/10/16 07:13:55;;;;;;;2.55;0.80;;;13.40;99.90;;;;;;6219526;23;20438;-89
2022/10/16 07:16:25;;;;;;;3.83;0.97;;;13.50;99.90;;;;;;6194778;23;20067;-89
2022/10/16 07:19:08;;;;;;;2.90;1.42;;;13.50;99.90;;;;;;6195805;23;20247;-94
2022/10/16 07:21:35;;;;;;;1.38;0.60;;;13.50;99.90;;;;;;6194946;23;20020;-91
2022/10/16 07:24:01;;;;;;;3.08;0.80;;;13.50;99.90;;;;;;6194867;23;20434;-92
2022/10/16 07:26:39;;;;;;;1.80;0.57;;;13.50;99.90;;;;;;6194987;23;20020;-91
2022/10/16 07:29:11;;;;;;;1.48;0.70;;;13.50;99.90;;;;;;6194845;23;20012;-89
2022/10/16 07:31:37;;;;;;;2.17;0.63;;;13.50;99.90;;;;;;6194939;23;20016;-90
2022/10/16 07:34:10;;;;;;;1.30;0.47;;;13.60;99.90;;;;;;6219832;23;20017;-89
2022/10/16 07:36:36;;;;;;;2.08;0.60;;;13.60;99.90;;;;;;6169876;23;20012;-91
2022/10/16 07:39:04;;;;;;;2.23;0.70;;;13.60;99.90;;;;;;6169710;23;20058;-90
2022/10/16 07:41:32;;;;;;;2.53;0.55;;;13.60;99.90;;;;;;6194804;23;20055;-89
2022/10/16 07:44:00;;;;;;;2.35;0.63;;;13.60;99.90;;;;;;6194677;23;20012;-89
2022/10/16 07:46:29;;;;;;;1.38;0.60;;;13.70;99.90;;;;;;6194595;23;20442;-91
2022/10/16 07:48:57;;;;;;;1.63;0.40;;;13.70;99.90;;;;;;6195076;23;20016;-90
2022/10/16 07:51:25;;;;;;;1.27;0.50;;;13.70;99.90;;;;;;6194823;23;20012;-90
2022/10/16 07:53:52;;;;;;;1.25;0.60;;;13.70;99.90;;;;;;6194695;23;20024;-92
2022/10/16 07:56:19;;;;;;;1.63;0.57;;;13.70;99.90;;;;;;6194680;23;20142;-93
2022/10/16 07:58:46;;;;;;;3.45;0.60;;;13.70;99.90;;;;;;6195067;23;20442;-91
2022/10/16 08:01:14;;;;;;;2.33;0.60;;;13.70;99.90;;;;;;6194353;23;20048;-92
2022/10/16 08:03:44;;;;;;;1.85;1.05;;;13.70;99.90;;;;;;6170107;23;20027;-90
2022/10/16 08:06:10;;;;;;;3.10;0.80;;;13.70;99.90;;;;;;6194622;23;20012;-89
2022/10/16 08:08:36;;;;;;;2.28;0.60;;;13.70;99.90;;;;;;6194709;23;20402;-89
2022/10/16 08:11:03;;;;;;;2.93;0.97;;;13.70;99.90;;;;;;6170078;23;20051;-92
2022/10/16 08:13:30;;;;;;;2.70;0.77;;;13.70;99.90;;;;;;6194417;23;20259;-88
2022/10/16 08:15:56;;;;;;;2.72;0.60;;;13.70;99.90;;;;;;6195022;23;20022;-90
2022/10/16 08:18:22;;;;;;;2.45;1.00;;;13.70;99.90;;;;;;6194689;23;20438;-90
2022/10/16 08:20:48;;;;;;;2.55;0.80;;;13.70;99.90;;;;;;6169873;23;20020;-89
2022/10/16 08:23:25;;;;;;;2.92;0.88;;;13.70;99.90;;;;;;6194726;23;20091;-91
2022/10/16 08:25:52;;;;;;;2.33;0.75;;;13.70;99.90;;;;;;6194432;23;20016;-90
2022/10/16 08:28:19;;;;;;;2.92;0.90;;;13.80;99.90;;;;;;6194709;23;20023;-90
2022/10/16 08:30:44;;;;;;;2.10;0.70;;;13.80;99.90;;;;;;6194559;23;20024;-90
2022/10/16 08:33:10;;;;;;;1.45;0.50;;;13.80;99.90;;;;;;6194618;23;20013;-92
2022/10/16 08:35:36;;;;;;;2.90;0.85;;;13.90;99.90;;;;;;6194523;23;20516;-90
2022/10/16 08:38:06;;;;;;;2.00;0.47;;;13.90;99.90;;;;;;6194436;23;20203;-90
2022/10/16 08:40:36;;;;;;;4.82;1.73;;;14.00;99.90;;;;;;6169885;23;20016;-90
2022/10/16 08:43:37;;;;;;;1.65;0.60;;;14.10;99.90;;;;;;6195126;23;20023;-88
2022/10/16 08:46:17;;;;;;;2.17;0.60;;;14.10;99.90;;;;;;6219528;23;20019;-92
2022/10/16 08:48:53;;;;;;;1.20;0.50;;;14.20;99.90;;;;;;6195575;23;20020;-87
2022/10/16 08:51:25;;;;;;;2.25;0.40;;;14.30;99.90;;;;;;6219943;23;20027;-89
2022/10/16 08:54:02;;;;;;;1.83;0.40;;;14.30;99.90;;;;;;6220240;23;20353;-86
2022/10/16 08:56:29;;;;;;;2.33;0.60;;;14.40;99.90;;;;;;6225735;23;20516;-85
2022/10/16 08:58:57;;;;;;;1.58;0.60;;;14.40;99.90;;;;;;6209780;23;20154;-85
2022/10/16 09:01:27;;;;;;;2.40;0.50;;;14.50;99.90;;;;;;6207116;23;20023;-87
2022/10/16 09:04:04;;;;;;;1.50;0.70;;;14.50;99.90;;;;;;6222915;23;20028;-88
2022/10/16 09:06:37;;;;;;;2.47;0.50;;;14.50;99.90;;;;;;6196879;23;20468;-86
2022/10/16 09:09:11;;;;;;;1.10;0.40;;;14.60;99.90;;;;;;6221227;23;20496;-86
2022/10/16 09:11:55;;;;;;;1.35;0.40;;;14.60;99.90;;;;;;6221630;23;20012;-88
2022/10/16 09:14:47;;;;;;;4.00;1.15;;;14.60;99.90;;;;;;6197994;23;20026;-89
2022/10/16 09:17:21;;;;;;;2.13;0.50;;;14.60;99.90;;;;;;6221952;23;20023;-93
2022/10/16 09:19:56;;;;;;;1.65;0.43;;;14.60;99.90;;;;;;6197045;23;20095;-91
2022/10/16 09:22:27;;;;;;;1.63;0.75;;;14.60;99.90;;;;;;6198482;23;20012;-90
2022/10/16 09:24:55;;;;;;;2.67;0.65;;;14.70;99.90;;;;;;6198029;23;20008;-85
2022/10/16 09:27:20;;;;;;;2.45;0.80;;;14.70;99.90;;;;;;6199386;23;20357;-85
2022/10/16 09:29:46;;;;;;;1.93;0.50;;;14.70;99.90;;;;;;6200724;23;20012;-87
2022/10/16 09:32:17;;;;;;;1.17;0.40;;;14.70;99.90;;;;;;6199122;23;20050;-85
2022/10/16 09:34:53;;;;;;;2.38;0.50;;;14.70;99.90;;;;;;6227328;23;20024;-86
2022/10/16 09:37:22;;;;;;;1.70;0.60;;;14.80;99.90;;;;;;6202168;23;20331;-85
2022/10/16 09:39:53;;;;;;;2.45;0.55;;;14.80;99.90;;;;;;6222112;23;20102;-94
2022/10/16 09:42:31;;;;;;;3.45;0.60;;;14.80;99.90;;;;;;6225116;23;20020;-86
2022/10/16 09:44:57;;;;;;;2.33;0.80;;;14.90;99.90;;;;;;6201276;23;20434;-89
2022/10/16 09:47:25;;;;;;;2.70;0.93;;;15.00;99.90;;;;;;6223850;23;20016;-86
2022/10/16 09:50:05;;;;;;;1.83;0.40;;;15.10;99.90;;;;;;6197135;23;20012;-96
2022/10/16 09:52:33;;;;;;;1.02;0.35;;;15.20;99.90;;;;;;6223553;23;20020;-93
2022/10/16 09:55:01;;;;;;;4.20;1.08;;;15.30;99.90;;;;;;6200799;23;20020;-85
2022/10/16 09:57:28;;;;;;;1.48;0.47;;;15.30;99.90;;;;;;6227164;23;20454;-87
2022/10/16 09:59:59;;;;;;;1.92;0.50;;;15.40;99.90;;;;;;6224786;23;20031;-87
2022/10/16 10:02:37;;;;;;;2.63;0.55;;;15.50;99.90;;;;;;6254885;23;20020;-85
2022/10/16 10:05:13;;;;;;;4.28;0.95;;;15.50;99.90;;;;;;6227738;23;20103;-89
2022/10/16 10:07:45;;;;;;;2.08;0.50;;;15.50;99.90;;;;;;6252037;23;20098;-93
2022/10/16 10:10:23;;;;;;;3.28;0.70;;;15.50;99.90;;;;;;6227691;23;20087;-87
2022/10/16 10:12:49;;;;;;;5.32;0.88;;;15.50;99.90;;;;;;6253230;23;20024;-88
2022/10/16 10:15:21;;;;;;;4.82;0.82;;;15.50;99.90;;;;;;6225670;23;20020;-86
2022/10/16 10:17:49;;;;;;;2.92;0.65;;;15.60;99.90;;;;;;6255006;23;20020;-85
2022/10/16 10:20:24;;;;;;;3.65;0.68;;;15.60;99.90;;;;;;6252172;23;20012;-85
2022/10/16 10:22:53;;;;;;;3.45;0.57;;;15.60;99.90;;;;;;6226992;23;20020;-88
2022/10/16 10:25:42;;;;;;;3.65;0.70;;;15.60;99.90;;;;;;6228998;23;20031;-88
2022/10/16 10:28:36;;;;;;;3.85;0.60;;;15.70;99.90;;;;;;6225779;23;20016;-89
2022/10/16 10:31:20;;;;;;;3.38;0.63;;;15.80;99.90;;;;;;6252852;23;20004;-94
2022/10/16 10:34:15;;;;;;;2.28;0.60;;;15.80;99.90;;;;;;6201901;23;20016;-90
2022/10/16 10:36:41;;;;;;;3.10;0.40;;;15.90;99.90;;;;;;6223289;23;20012;-87
2022/10/16 10:39:22;;;;;;;3.72;0.73;;;15.90;99.90;;;;;;6249024;23;20027;-88
2022/10/16 10:41:57;;;;;;;1.25;0.40;;;16.00;99.90;;;;;;6197294;23;20643;-90
2022/10/16 10:44:59;;;;;;;2.78;0.40;;;16.00;99.90;;;;;;6197099;23;20046;-89
2022/10/16 10:47:50;;;;;;;2.38;0.45;;;16.00;99.90;;;;;;6197219;23;20027;-87
2022/10/16 10:50:46;;;;;;;1.58;0.40;;;16.00;99.90;;;;;;6222929;23;20019;-89
2022/10/16 10:53:59;;;;;;;5.18;0.85;;;16.00;99.90;;;;;;6194789;23;20371;-90
2022/10/16 11:56:58;;;;;;;3.03;0.73;;;17.40;99.90;;;;;;6274974;22;20024;-90
2022/10/16 12:36:33;;;;;;;1.10;0.40;;;16.60;99.90;;;;;;6278840;22;20090;-92
2022/10/16 12:39:32;;;;;;;2.00;0.47;;;16.50;99.90;;;;;;6229298;22;20030;-93
2022/10/16 12:42:05;;;;;;;2.13;0.38;;;16.50;99.90;;;;;;6220451;22;20016;-93
2022/10/16 12:44:35;;;;;;;2.83;0.43;;;16.50;99.90;;;;;;6228677;22;20016;-96
2022/10/16 12:47:02;;;;;;;3.85;0.40;;;16.40;99.90;;;;;;6228976;22;20099;-94
2022/10/16 12:49:28;;;;;;;5.63;0.52;;;16.40;99.90;;;;;;6230385;22;20011;-91
2022/10/16 12:51:54;;;;;;;6.35;0.45;;;16.40;99.90;;;;;;6227873;22;20467;-91
2022/10/16 12:54:22;;;;;;;2.47;0.38;;;16.30;99.90;;;;;;6228942;22;20031;-94
2022/10/16 12:56:48;;;;;;;2.95;0.50;;;16.30;99.90;;;;;;6230569;22;20016;-96
2022/10/16 12:59:26;;;;;;;3.75;0.55;;;16.30;99.90;;;;;;6258552;22;20083;-92
2022/10/16 13:02:11;;;;;;;3.60;0.38;;;16.30;99.90;;;;;;6259581;22;20042;-93
2022/10/16 13:04:57;;;;;;;1.67;0.28;;;16.20;99.90;;;;;;6258183;22;20067;-92
2022/10/16 13:07:47;;;;;;;5.35;0.40;;;16.20;99.90;;;;;;6257662;22;20026;-96
2022/10/16 13:10:26;;;;;;;3.85;0.70;;;16.20;99.90;;;;;;6260348;22;20015;-96
2022/10/16 13:13:07;;;;;;;3.90;0.70;;;16.20;99.90;;;;;;6259434;22;20051;-94
2022/10/16 13:16:02;;;;;;;2.95;0.50;;;16.20;99.90;;;;;;6285698;22;20433;-93
2022/10/16 13:18:42;;;;;;;3.47;0.40;;;16.20;99.90;;;;;;6257690;22;20019;-93
2022/10/16 13:21:21;;;;;;;3.22;0.40;;;16.20;99.90;;;;;;6258356;22;20437;-92
2022/10/16 13:24:08;;;;;;;2.65;0.50;;;16.20;99.90;;;;;;6258863;22;20055;-91
2022/10/16 13:26:36;;;;;;;3.58;0.73;;;16.20;99.90;;;;;;6258854;22;20015;-93
2022/10/16 13:29:02;;;;;;;2.78;0.30;;;16.20;99.90;;;;;;6257991;22;20020;-91
2022/10/16 13:31:29;;;;;;;3.17;0.35;;;16.20;99.90;;;;;;6259091;22;20100;-93
2022/10/16 13:34:20;;;;;;;3.70;0.70;;;16.20;99.90;;;;;;6258248;22;20015;-92
2022/10/16 14:01:39;;;;;;;4.47;0.90;;;16.40;99.90;;;;;;6277575;22;20015;-90
2022/10/16 14:04:30;;;;;;;2.70;0.63;;;16.40;99.90;;;;;;6226652;22;20031;-92
2022/10/16 14:06:56;;;;;;;1.13;0.38;;;16.50;99.90;;;;;;6226051;22;20016;-92
2022/10/16 14:09:29;;;;;;;4.28;0.60;;;16.50;99.90;;;;;;6224439;22;20026;-92
2022/10/16 14:12:01;;;;;;;4.55;0.47;;;16.50;99.90;;;;;;6225681;22;20020;-94
2022/10/16 14:14:35;;;;;;;2.80;0.95;;;16.60;99.90;;;;;;6223674;22;20043;-87
2022/10/16 14:17:03;;;;;;;2.13;0.40;;;16.60;99.90;;;;;;6224751;22;20020;-87
2022/10/16 14:19:30;;;;;;;2.58;0.40;;;16.60;99.90;;;;;;6251049;22;20023;-89
2022/10/16 14:21:57;;;;;;;1.63;0.40;;;16.60;99.90;;;;;;6260824;22;20023;-88
2022/10/16 14:24:42;;;;;;;3.80;0.50;;;16.60;99.90;;;;;;6236122;22;20404;-87
2022/10/16 14:27:26;;;;;;;4.78;0.50;;;16.60;99.90;;;;;;6198505;22;20016;-87
2022/10/16 14:30:07;;;;;;;3.75;0.30;;;16.60;99.90;;;;;;6224617;22;20341;-88
2022/10/16 14:32:33;;;;;;;3.20;0.30;;;16.60;99.90;;;;;;6249641;22;20016;-87
2022/10/16 14:34:59;;;;;;;3.42;0.55;;;16.50;99.90;;;;;;6199407;22;20026;-89
2022/10/16 14:37:29;;;;;;;3.25;0.45;;;16.50;99.90;;;;;;6224538;22;20196;-88
2022/10/16 14:39:56;;;;;;;5.18;0.73;;;16.50;99.90;;;;;;6249641;22;20407;-88
2022/10/16 14:42:25;;;;;;;1.98;0.32;;;16.40;99.90;;;;;;6249656;22;20337;-87
2022/10/16 14:44:57;;;;;;;3.40;0.45;;;16.40;99.90;;;;;;6224511;22;20022;-88
2022/10/16 14:47:26;;;;;;;3.30;0.52;;;16.40;99.90;;;;;;6249229;22;20016;-88
2022/10/16 14:49:54;;;;;;;3.22;0.40;;;16.30;99.90;;;;;;6246724;22;20441;-88
2022/10/16 14:52:21;;;;;;;2.25;0.63;;;16.30;99.90;;;;;;6245223;22;20019;-89
2022/10/16 14:54:54;;;;;;;1.60;0.47;;;16.30;99.90;;;;;;6222980;22;20015;-88
2022/10/16 14:57:23;;;;;;;3.65;0.50;;;16.30;99.90;;;;;;6223275;22;20015;-87
2022/10/16 14:59:51;;;;;;;6.00;0.70;;;16.20;99.90;;;;;;6224849;22;20023;-88
2022/10/16 15:02:34;;;;;;;4.03;0.70;;;16.20;99.90;;;;;;6249893;22;20020;-88
2022/10/16 15:05:13;;;;;;;3.55;0.60;;;16.10;99.90;;;;;;6249939;22;20467;-88
2022/10/16 15:07:39;;;;;;;2.58;0.43;;;16.10;99.90;;;;;;6224591;22;20054;-88
2022/10/16 15:10:23;;;;;;;4.72;0.60;;;16.00;99.90;;;;;;6250529;22;20019;-88
2022/10/16 15:12:49;;;;;;;4.40;0.70;;;16.00;99.90;;;;;;6249935;22;20012;-89
2022/10/16 15:15:39;;;;;;;3.40;0.40;;;15.90;99.90;;;;;;6224286;22;20027;-88
2022/10/16 15:18:05;;;;;;;1.90;0.50;;;16.00;99.90;;;;;;6222417;22;20022;-88
2022/10/16 15:20:36;;;;;;;2.35;0.70;;;15.90;99.90;;;;;;6249470;22;20094;-91
2022/10/16 15:23:07;;;;;;;6.15;0.40;;;15.90;99.90;;;;;;6222995;22;20022;-93
2022/10/16 16:04:37;;;;;;;3.75;0.57;;;15.40;99.90;;;;;;6276390;22;20024;-93
2022/10/16 16:07:02;;;;;;;3.03;0.70;;;15.30;99.90;;;;;;6225274;22;20019;-93
2022/10/16 16:09:31;;;;;;;3.80;1.35;;;15.30;99.90;;;;;;6225645;22;20149;-93
2022/10/16 16:12:00;;;;;;;4.93;0.82;;;15.30;99.90;;;;;;6225676;22;20103;-92
2022/10/16 16:14:27;;;;;;;3.03;0.73;;;15.20;99.90;;;;;;6225280;22;20041;-93
2022/10/16 16:16:54;;;;;;;4.80;0.90;;;15.10;99.90;;;;;;6225214;22;20012;-92
2022/10/16 16:19:20;;;;;;;2.75;0.80;;;15.10;99.90;;;;;;6225177;22;20545;-93
2022/10/16 16:21:46;;;;;;;;;;;15.00;99.90;;;;;;6225993;22;20011;-93
2022/10/16 16:24:12;;;;;;;2.70;0.63;;;15.00;99.90;;;;;;6225227;22;20029;-93
2022/10/16 16:26:39;;;;;;;4.07;0.73;;;14.90;99.90;;;;;;6226292;22;20016;-93
2022/10/16 16:33:44;;;;;;;2.95;0.90;;;14.70;99.90;;;;;;6024575;23;20023;-93
2022/10/16 16:40:33;;;;;;;6.25;1.20;;;14.50;99.90;;;;;;5962210;23;20035;-93
2022/10/16 16:44:07;;;;;;;;;;;;;;;;;;;;;
2022/10/16 16:47:25;;;;;;;2.97;0.55;;;14.30;99.90;;;;;;5982492;23;20022;-94
2022/10/16 18:00:44;;;;;;;7.70;3.47;;;12.90;99.90;;;;;;6277604;22;20019;-93
2022/10/16 18:03:09;;;;;;;6.57;2.40;;;12.90;99.90;;;;;;6200852;22;20524;-93
2022/10/16 18:05:37;;;;;;;7.03;1.73;;;12.90;99.90;;;;;;6225307;22;20007;-92
2022/10/16 18:08:03;;;;;;;3.60;0.68;;;12.90;99.90;;;;;;6226319;22;20254;-93
2022/10/16 18:10:28;;;;;;;5.78;1.58;;;12.90;99.90;;;;;;6176274;22;20007;-92
2022/10/16 18:12:55;;;;;;;2.33;0.60;;;12.90;99.90;;;;;;6201016;22;20042;-92
2022/10/16 18:15:21;;;;;;;4.95;0.70;;;12.90;99.90;;;;;;6226241;22;20762;-92
2022/10/16 18:17:47;;;;;;;2.40;0.70;;;12.90;99.90;;;;;;6226171;22;20019;-93
2022/10/16 18:20:12;;;;;;;2.87;0.50;;;12.90;99.90;;;;;;6225952;22;20027;-93
2022/10/16 18:22:38;;;;;;;3.10;0.60;;;12.90;99.90;;;;;;6226260;22;20318;-92
2022/10/16 18:25:06;;;;;;;1.38;0.40;;;12.90;99.90;;;;;;6226196;22;20020;-93
2022/10/16 18:27:32;;;;;;;2.70;0.50;;;12.80;99.90;;;;;;6225939;22;20077;-93
2022/10/16 18:29:59;;;;;;;1.42;0.40;;;12.80;99.90;;;;;;6225872;22;20441;-93
2022/10/16 18:32:25;;;;;;;;;;;12.70;99.90;;;;;;6226030;22;20453;-93
2022/10/16 18:35:09;;;;;;;2.72;0.50;;;12.70;99.90;;;;;;6225994;22;19998;-93
2022/10/16 18:37:46;;;;;;;2.70;0.63;;;12.70;99.90;;;;;;6204344;22;20015;-92
2022/10/16 18:40:43;;;;;;;2.25;0.55;;;12.70;99.90;;;;;;6253789;22;20448;-93
2022/10/16 18:43:19;;;;;;;2.13;0.50;;;12.70;99.90;;;;;;6226312;22;20050;-92
2022/10/16 18:46:55;;;;;;;2.28;0.70;;;12.60;99.90;;;;;;6255398;22;20023;-93
2022/10/16 18:53:08;;;;;;;2.63;0.47;;;12.70;99.90;;;;;;6242280;22;20023;-93
2022/10/16 18:59:25;;;;;;;;;;;;;;;;;;;;;
2022/10/16 19:02:03;;;;;;;2.88;0.85;;;12.50;99.90;;;;;;6325394;22;20034;-93
2022/10/16 19:04:29;;;;;;;4.10;1.23;;;12.50;99.90;;;;;;6248734;22;20019;-94
2022/10/16 19:06:55;;;;;;;2.92;0.88;;;12.50;99.90;;;;;;6248809;22;20064;-93
2022/10/16 19:09:22;;;;;;;4.05;1.10;;;12.40;99.90;;;;;;6265577;22;20098;-94
2022/10/16 19:11:49;;;;;;;4.55;1.13;;;12.50;99.90;;;;;;6257590;22;20015;-94
2022/10/16 19:14:16;;;;;;;3.15;0.60;;;12.50;99.90;;;;;;6256986;22;20095;-94
2022/10/16 19:16:42;;;;;;;2.35;0.73;;;12.40;99.90;;;;;;6258846;22;20022;-94
2022/10/16 19:19:11;;;;;;;;;;;12.40;99.90;;;;;;6275623;22;20007;-91
2022/10/16 19:21:39;;;;;;;10.60;4.50;;;12.30;99.90;;;;;;6254844;22;19914;-94
2022/10/16 19:24:05;;;;;;;4.03;1.83;;;12.30;99.90;;;;;;6254345;22;20019;-95
2022/10/16 19:26:32;;;;;;;5.00;0.88;;;12.40;99.90;;;;;;6229743;22;20015;-93
2022/10/16 19:29:00;;;;;;;3.80;0.73;;;12.40;99.90;;;;;;6256040;22;20026;-95
2022/10/16 19:31:28;;;;;;;4.18;0.90;;;12.40;99.90;;;;;;6255511;22;20071;-96
2022/10/16 19:33:56;;;;;;;2.47;0.68;;;12.30;99.90;;;;;;6256161;22;20047;-93
2022/10/16 19:36:27;;;;;;;2.97;0.70;;;12.30;99.90;;;;;;6256392;22;20016;-94
2022/10/16 19:38:57;;;;;;;3.65;0.70;;;12.20;99.90;;;;;;6256179;22;20050;-94
2022/10/16 19:41:24;;;;;;;3.75;0.93;;;12.20;99.90;;;;;;6231177;22;20443;-95
2022/10/16 19:43:50;;;;;;;4.25;0.88;;;12.20;99.90;;;;;;6230786;22;20165;-94
2022/10/16 19:46:20;;;;;;;;;;;12.20;99.90;;;;;;6256336;22;20393;-94